sensor_id;sensor_type;location;lat;lon;timestamp;P1;durP1;ratioP1;P2;durP2;ratioP2
974;SDS011;6115;49.296;10.602;2023-02-28T00:01:52;3.57;;;2.57;;
974;SDS011;6115;49.296;10.602;2023-02-28T00:06:53;4.83;;;2.57;;
974;SDS011;6115;49.296;10.602;2023-02-28T00:11:53;3.23;;;2.20;;
974;SDS011;6115;49.296;10.602;2023-02-28T00:16:54;3.77;;;2.70;;
974;SDS011;6115;49.296;10.602;2023-02-28T00:21:55;2.90;;;2.23;;
974;SDS011;6115;49.296;10.602;2023-02-28T00:26:55;6.63;;;2.27;;
974;SDS011;6115;49.296;10.602;2023-02-28T00:31:56;7.17;;;3.10;;
974;SDS011;6115;49.296;10.602;2023-02-28T00:36:56;3.63;;;2.37;;
974;SDS011;6115;49.296;10.602;2023-02-28T00:41:57;7.07;;;3.40;;
974;SDS011;6115;49.296;10.602;2023-02-28T00:46:57;2.50;;;1.87;;
974;SDS011;6115;49.296;10.602;2023-02-28T00:51:59;2.07;;;1.60;;
974;SDS011;6115;49.296;10.602;2023-02-28T00:56:59;2.70;;;1.73;;
974;SDS011;6115;49.296;10.602;2023-02-28T01:02:00;5.10;;;2.57;;
974;SDS011;6115;49.296;10.602;2023-02-28T01:07:01;3.83;;;2.43;;
974;SDS011;6115;49.296;10.602;2023-02-28T01:12:01;3.03;;;2.57;;
974;SDS011;6115;49.296;10.602;2023-02-28T01:17:02;3.37;;;2.10;;
974;SDS011;6115;49.296;10.602;2023-02-28T01:22:03;3.60;;;2.40;;
974;SDS011;6115;49.296;10.602;2023-02-28T01:27:04;3.57;;;1.93;;
974;SDS011;6115;49.296;10.602;2023-02-28T01:32:05;6.13;;;2.67;;
974;SDS011;6115;49.296;10.602;2023-02-28T01:37:06;4.57;;;3.30;;
974;SDS011;6115;49.296;10.602;2023-02-28T01:42:08;4.30;;;3.03;;
974;SDS011;6115;49.296;10.602;2023-02-28T01:47:09;1.70;;;1.40;;
974;SDS011;6115;49.296;10.602;2023-02-28T01:52:10;2.50;;;1.83;;
974;SDS011;6115;49.296;10.602;2023-02-28T01:57:18;5.60;;;2.97;;
974;SDS011;6115;49.296;10.602;2023-02-28T02:02:22;2.40;;;1.90;;
974;SDS011;6115;49.296;10.602;2023-02-28T02:07:24;4.47;;;2.70;;
974;SDS011;6115;49.296;10.602;2023-02-28T02:12:37;5.73;;;2.70;;
974;SDS011;6115;49.296;10.602;2023-02-28T02:17:52;5.27;;;3.70;;
974;SDS011;6115;49.296;10.602;2023-02-28T02:23:03;5.30;;;2.80;;
974;SDS011;6115;49.296;10.602;2023-02-28T02:39:16;3.87;;;2.50;;
974;SDS011;6115;49.296;10.602;2023-02-28T02:44:22;3.70;;;2.50;;
974;SDS011;6115;49.296;10.602;2023-02-28T02:49:24;4.30;;;2.37;;
974;SDS011;6115;49.296;10.602;2023-02-28T02:54:31;3.77;;;2.40;;
974;SDS011;6115;49.296;10.602;2023-02-28T02:59:35;5.13;;;3.20;;
974;SDS011;6115;49.296;10.602;2023-02-28T03:04:40;2.73;;;2.33;;
974;SDS011;6115;49.296;10.602;2023-02-28T03:09:52;2.80;;;2.00;;
974;SDS011;6115;49.296;10.602;2023-02-28T03:31:03;4.37;;;3.00;;
974;SDS011;6115;49.296;10.602;2023-02-28T03:36:15;3.53;;;3.17;;
974;SDS011;6115;49.296;10.602;2023-02-28T03:41:20;6.63;;;3.97;;
974;SDS011;6115;49.296;10.602;2023-02-28T03:46:23;4.40;;;2.53;;
974;SDS011;6115;49.296;10.602;2023-02-28T03:51:26;5.17;;;2.60;;
974;SDS011;6115;49.296;10.602;2023-02-28T03:56:37;4.70;;;2.73;;
974;SDS011;6115;49.296;10.602;2023-02-28T04:01:44;2.70;;;2.50;;
974;SDS011;6115;49.296;10.602;2023-02-28T04:06:49;3.43;;;3.00;;
974;SDS011;6115;49.296;10.602;2023-02-28T04:11:51;6.23;;;3.80;;
974;SDS011;6115;49.296;10.602;2023-02-28T04:16:52;5.40;;;3.07;;
974;SDS011;6115;49.296;10.602;2023-02-28T04:21:53;5.33;;;2.70;;
974;SDS011;6115;49.296;10.602;2023-02-28T04:26:54;4.03;;;3.63;;
974;SDS011;6115;49.296;10.602;2023-02-28T04:31:56;3.97;;;2.47;;
974;SDS011;6115;49.296;10.602;2023-02-28T04:37:00;5.67;;;3.40;;
974;SDS011;6115;49.296;10.602;2023-02-28T04:42:03;8.87;;;3.03;;
974;SDS011;6115;49.296;10.602;2023-02-28T04:47:03;10.00;;;4.30;;
974;SDS011;6115;49.296;10.602;2023-02-28T04:52:04;4.97;;;3.57;;
974;SDS011;6115;49.296;10.602;2023-02-28T04:57:07;4.80;;;2.73;;
974;SDS011;6115;49.296;10.602;2023-02-28T05:02:07;4.30;;;3.37;;
974;SDS011;6115;49.296;10.602;2023-02-28T05:07:08;7.73;;;4.60;;
974;SDS011;6115;49.296;10.602;2023-02-28T05:12:09;5.10;;;3.37;;
974;SDS011;6115;49.296;10.602;2023-02-28T05:17:10;5.23;;;3.90;;
974;SDS011;6115;49.296;10.602;2023-02-28T05:22:14;5.07;;;4.27;;
974;SDS011;6115;49.296;10.602;2023-02-28T05:27:19;6.50;;;4.37;;
974;SDS011;6115;49.296;10.602;2023-02-28T05:32:19;8.87;;;4.23;;
974;SDS011;6115;49.296;10.602;2023-02-28T05:37:20;12.13;;;4.70;;
974;SDS011;6115;49.296;10.602;2023-02-28T05:42:20;6.17;;;3.80;;
974;SDS011;6115;49.296;10.602;2023-02-28T05:47:21;6.40;;;4.77;;
974;SDS011;6115;49.296;10.602;2023-02-28T05:52:22;4.20;;;3.57;;
974;SDS011;6115;49.296;10.602;2023-02-28T05:57:23;7.20;;;5.50;;
974;SDS011;6115;49.296;10.602;2023-02-28T06:02:24;7.10;;;5.37;;
974;SDS011;6115;49.296;10.602;2023-02-28T06:07:24;6.07;;;4.00;;
974;SDS011;6115;49.296;10.602;2023-02-28T06:12:25;7.07;;;4.73;;
974;SDS011;6115;49.296;10.602;2023-02-28T06:17:25;8.53;;;4.50;;
974;SDS011;6115;49.296;10.602;2023-02-28T06:22:26;9.43;;;4.17;;
974;SDS011;6115;49.296;10.602;2023-02-28T06:27:26;9.33;;;4.50;;
974;SDS011;6115;49.296;10.602;2023-02-28T06:32:27;7.93;;;5.07;;
974;SDS011;6115;49.296;10.602;2023-02-28T06:37:28;7.07;;;3.60;;
974;SDS011;6115;49.296;10.602;2023-02-28T06:42:30;7.00;;;4.90;;
974;SDS011;6115;49.296;10.602;2023-02-28T06:47:31;8.47;;;5.13;;
974;SDS011;6115;49.296;10.602;2023-02-28T06:52:31;8.37;;;4.83;;
974;SDS011;6115;49.296;10.602;2023-02-28T06:57:32;10.93;;;5.37;;
974;SDS011;6115;49.296;10.602;2023-02-28T07:02:35;8.47;;;4.53;;
974;SDS011;6115;49.296;10.602;2023-02-28T07:07:37;7.50;;;5.43;;
974;SDS011;6115;49.296;10.602;2023-02-28T07:12:40;10.23;;;5.17;;
974;SDS011;6115;49.296;10.602;2023-02-28T07:17:41;12.77;;;6.57;;
974;SDS011;6115;49.296;10.602;2023-02-28T07:22:41;9.20;;;4.30;;
974;SDS011;6115;49.296;10.602;2023-02-28T07:27:42;8.73;;;5.30;;
974;SDS011;6115;49.296;10.602;2023-02-28T07:32:42;7.87;;;4.27;;
974;SDS011;6115;49.296;10.602;2023-02-28T07:37:43;6.93;;;4.70;;
974;SDS011;6115;49.296;10.602;2023-02-28T07:42:44;8.77;;;5.40;;
974;SDS011;6115;49.296;10.602;2023-02-28T07:47:45;8.60;;;6.00;;
974;SDS011;6115;49.296;10.602;2023-02-28T07:52:45;8.47;;;4.57;;
974;SDS011;6115;49.296;10.602;2023-02-28T07:57:46;8.50;;;4.63;;
974;SDS011;6115;49.296;10.602;2023-02-28T08:02:47;8.53;;;5.77;;
974;SDS011;6115;49.296;10.602;2023-02-28T08:07:48;11.97;;;5.53;;
974;SDS011;6115;49.296;10.602;2023-02-28T08:12:49;10.27;;;6.57;;
974;SDS011;6115;49.296;10.602;2023-02-28T08:17:50;9.13;;;5.60;;
974;SDS011;6115;49.296;10.602;2023-02-28T08:22:50;8.50;;;5.37;;
974;SDS011;6115;49.296;10.602;2023-02-28T08:27:54;7.50;;;5.23;;
974;SDS011;6115;49.296;10.602;2023-02-28T08:32:54;6.77;;;5.10;;
974;SDS011;6115;49.296;10.602;2023-02-28T08:37:55;10.47;;;6.50;;
974;SDS011;6115;49.296;10.602;2023-02-28T08:42:55;8.83;;;6.43;;
974;SDS011;6115;49.296;10.602;2023-02-28T08:47:56;8.30;;;5.90;;
974;SDS011;6115;49.296;10.602;2023-02-28T08:52:56;12.30;;;6.60;;
974;SDS011;6115;49.296;10.602;2023-02-28T08:57:57;10.13;;;5.90;;
974;SDS011;6115;49.296;10.602;2023-02-28T09:02:58;8.80;;;6.00;;
974;SDS011;6115;49.296;10.602;2023-02-28T09:07:59;6.57;;;4.30;;
974;SDS011;6115;49.296;10.602;2023-02-28T09:12:59;9.30;;;5.50;;
974;SDS011;6115;49.296;10.602;2023-02-28T09:18:00;13.70;;;7.30;;
974;SDS011;6115;49.296;10.602;2023-02-28T09:23:00;10.13;;;6.03;;
974;SDS011;6115;49.296;10.602;2023-02-28T09:28:01;12.23;;;7.20;;
974;SDS011;6115;49.296;10.602;2023-02-28T09:33:02;14.27;;;7.53;;
974;SDS011;6115;49.296;10.602;2023-02-28T09:38:03;10.37;;;7.30;;
974;SDS011;6115;49.296;10.602;2023-02-28T09:43:04;10.50;;;7.40;;
974;SDS011;6115;49.296;10.602;2023-02-28T09:48:16;9.73;;;6.13;;
974;SDS011;6115;49.296;10.602;2023-02-28T09:53:28;9.03;;;7.40;;
974;SDS011;6115;49.296;10.602;2023-02-28T10:09:18;10.53;;;8.23;;
974;SDS011;6115;49.296;10.602;2023-02-28T10:14:24;11.37;;;7.93;;
974;SDS011;6115;49.296;10.602;2023-02-28T10:19:30;9.20;;;7.63;;
974;SDS011;6115;49.296;10.602;2023-02-28T10:30:08;13.90;;;6.90;;
974;SDS011;6115;49.296;10.602;2023-02-28T10:45:19;8.70;;;7.17;;
974;SDS011;6115;49.296;10.602;2023-02-28T10:55:27;9.17;;;7.57;;
974;SDS011;6115;49.296;10.602;2023-02-28T11:00:35;9.17;;;6.97;;
974;SDS011;6115;49.296;10.602;2023-02-28T11:05:36;10.10;;;6.97;;
974;SDS011;6115;49.296;10.602;2023-02-28T11:10:37;9.13;;;6.60;;
974;SDS011;6115;49.296;10.602;2023-02-28T11:15:37;9.57;;;7.07;;
974;SDS011;6115;49.296;10.602;2023-02-28T11:20:38;10.70;;;8.17;;
974;SDS011;6115;49.296;10.602;2023-02-28T11:25:40;13.60;;;7.80;;
974;SDS011;6115;49.296;10.602;2023-02-28T11:30:59;8.43;;;6.93;;
974;SDS011;6115;49.296;10.602;2023-02-28T11:36:07;10.13;;;7.67;;
974;SDS011;6115;49.296;10.602;2023-02-28T12:03:16;11.33;;;8.03;;
974;SDS011;6115;49.296;10.602;2023-02-28T12:29:55;11.27;;;7.87;;
974;SDS011;6115;49.296;10.602;2023-02-28T12:40:14;9.90;;;7.67;;
974;SDS011;6115;49.296;10.602;2023-02-28T12:45:22;10.50;;;8.00;;
974;SDS011;6115;49.296;10.602;2023-02-28T12:50:25;8.10;;;6.80;;
974;SDS011;6115;49.296;10.602;2023-02-28T12:55:29;11.07;;;7.90;;
974;SDS011;6115;49.296;10.602;2023-02-28T13:00:36;11.47;;;8.43;;
974;SDS011;6115;49.296;10.602;2023-02-28T13:11:03;10.53;;;8.00;;
974;SDS011;6115;49.296;10.602;2023-02-28T13:16:09;12.77;;;8.53;;
974;SDS011;6115;49.296;10.602;2023-02-28T13:21:27;9.00;;;7.57;;
974;SDS011;6115;49.296;10.602;2023-02-28T13:31:30;11.20;;;8.67;;
974;SDS011;6115;49.296;10.602;2023-02-28T13:36:32;11.27;;;8.23;;
974;SDS011;6115;49.296;10.602;2023-02-28T13:47:18;11.37;;;8.80;;
974;SDS011;6115;49.296;10.602;2023-02-28T14:07:46;16.50;;;9.90;;
974;SDS011;6115;49.296;10.602;2023-02-28T14:12:51;16.40;;;9.80;;
974;SDS011;6115;49.296;10.602;2023-02-28T14:17:57;13.73;;;8.93;;
974;SDS011;6115;49.296;10.602;2023-02-28T14:23:11;11.03;;;7.90;;
974;SDS011;6115;49.296;10.602;2023-02-28T14:39:22;11.30;;;8.40;;
974;SDS011;6115;49.296;10.602;2023-02-28T14:44:26;11.10;;;7.70;;
974;SDS011;6115;49.296;10.602;2023-02-28T14:49:28;11.57;;;7.50;;
974;SDS011;6115;49.296;10.602;2023-02-28T14:54:31;10.60;;;7.30;;
974;SDS011;6115;49.296;10.602;2023-02-28T14:59:33;10.70;;;7.80;;
974;SDS011;6115;49.296;10.602;2023-02-28T15:04:34;10.57;;;7.10;;
974;SDS011;6115;49.296;10.602;2023-02-28T15:09:35;8.80;;;6.17;;
974;SDS011;6115;49.296;10.602;2023-02-28T15:14:36;13.20;;;8.50;;
974;SDS011;6115;49.296;10.602;2023-02-28T15:19:39;15.97;;;7.80;;
974;SDS011;6115;49.296;10.602;2023-02-28T15:24:46;14.23;;;7.40;;
974;SDS011;6115;49.296;10.602;2023-02-28T15:29:54;9.90;;;7.17;;
974;SDS011;6115;49.296;10.602;2023-02-28T15:34:59;11.10;;;6.50;;
974;SDS011;6115;49.296;10.602;2023-02-28T15:40:44;12.63;;;8.63;;
974;SDS011;6115;49.296;10.602;2023-02-28T15:46:00;11.97;;;7.87;;
974;SDS011;6115;49.296;10.602;2023-02-28T15:51:07;10.23;;;6.63;;
974;SDS011;6115;49.296;10.602;2023-02-28T15:56:16;9.17;;;6.63;;
974;SDS011;6115;49.296;10.602;2023-02-28T16:01:38;9.90;;;7.60;;
974;SDS011;6115;49.296;10.602;2023-02-28T16:06:45;10.53;;;8.60;;
974;SDS011;6115;49.296;10.602;2023-02-28T16:11:59;9.57;;;7.10;;
974;SDS011;6115;49.296;10.602;2023-02-28T16:17:02;12.20;;;7.70;;
974;SDS011;6115;49.296;10.602;2023-02-28T16:22:05;15.03;;;9.00;;
974;SDS011;6115;49.296;10.602;2023-02-28T16:27:05;10.97;;;7.60;;
974;SDS011;6115;49.296;10.602;2023-02-28T16:32:06;14.23;;;8.70;;
974;SDS011;6115;49.296;10.602;2023-02-28T16:37:11;12.37;;;7.90;;
974;SDS011;6115;49.296;10.602;2023-02-28T16:42:23;18.17;;;9.13;;
974;SDS011;6115;49.296;10.602;2023-02-28T16:47:27;14.77;;;8.40;;
974;SDS011;6115;49.296;10.602;2023-02-28T16:52:27;11.43;;;7.60;;
974;SDS011;6115;49.296;10.602;2023-02-28T16:57:28;14.50;;;8.40;;
974;SDS011;6115;49.296;10.602;2023-02-28T17:02:28;15.10;;;8.43;;
974;SDS011;6115;49.296;10.602;2023-02-28T17:07:29;13.17;;;8.37;;
974;SDS011;6115;49.296;10.602;2023-02-28T17:12:29;10.57;;;8.27;;
974;SDS011;6115;49.296;10.602;2023-02-28T17:17:31;14.70;;;8.03;;
974;SDS011;6115;49.296;10.602;2023-02-28T17:22:32;13.53;;;8.63;;
974;SDS011;6115;49.296;10.602;2023-02-28T17:27:32;18.23;;;11.43;;
974;SDS011;6115;49.296;10.602;2023-02-28T17:32:33;18.27;;;10.80;;
974;SDS011;6115;49.296;10.602;2023-02-28T17:37:33;19.03;;;10.57;;
974;SDS011;6115;49.296;10.602;2023-02-28T17:42:34;17.63;;;10.50;;
974;SDS011;6115;49.296;10.602;2023-02-28T17:47:35;21.20;;;11.50;;
974;SDS011;6115;49.296;10.602;2023-02-28T17:52:35;19.20;;;11.17;;
974;SDS011;6115;49.296;10.602;2023-02-28T17:57:36;16.70;;;10.33;;
974;SDS011;6115;49.296;10.602;2023-02-28T18:02:37;20.80;;;11.30;;
974;SDS011;6115;49.296;10.602;2023-02-28T18:07:39;27.90;;;11.80;;
974;SDS011;6115;49.296;10.602;2023-02-28T18:12:39;13.77;;;10.13;;
974;SDS011;6115;49.296;10.602;2023-02-28T18:17:41;16.40;;;9.67;;
974;SDS011;6115;49.296;10.602;2023-02-28T18:22:41;19.97;;;12.27;;
974;SDS011;6115;49.296;10.602;2023-02-28T18:27:43;20.60;;;11.73;;
974;SDS011;6115;49.296;10.602;2023-02-28T18:32:52;20.27;;;10.70;;
974;SDS011;6115;49.296;10.602;2023-02-28T18:37:53;18.20;;;11.83;;
974;SDS011;6115;49.296;10.602;2023-02-28T18:42:54;19.80;;;10.40;;
974;SDS011;6115;49.296;10.602;2023-02-28T18:47:54;14.90;;;9.00;;
974;SDS011;6115;49.296;10.602;2023-02-28T18:52:55;14.67;;;10.23;;
974;SDS011;6115;49.296;10.602;2023-02-28T18:57:57;17.43;;;9.40;;
974;SDS011;6115;49.296;10.602;2023-02-28T19:02:58;20.77;;;9.70;;
974;SDS011;6115;49.296;10.602;2023-02-28T19:08:02;16.37;;;9.27;;
974;SDS011;6115;49.296;10.602;2023-02-28T19:13:03;15.23;;;9.43;;
974;SDS011;6115;49.296;10.602;2023-02-28T19:18:05;15.10;;;9.43;;
974;SDS011;6115;49.296;10.602;2023-02-28T19:23:05;17.03;;;9.93;;
974;SDS011;6115;49.296;10.602;2023-02-28T19:28:06;17.77;;;11.67;;
974;SDS011;6115;49.296;10.602;2023-02-28T19:33:06;16.93;;;9.87;;
974;SDS011;6115;49.296;10.602;2023-02-28T19:38:07;18.90;;;10.83;;
974;SDS011;6115;49.296;10.602;2023-02-28T19:43:08;12.03;;;8.90;;
974;SDS011;6115;49.296;10.602;2023-02-28T19:48:09;15.40;;;9.27;;
974;SDS011;6115;49.296;10.602;2023-02-28T19:53:10;21.67;;;11.10;;
974;SDS011;6115;49.296;10.602;2023-02-28T19:58:11;19.90;;;9.70;;
974;SDS011;6115;49.296;10.602;2023-02-28T20:03:11;17.73;;;10.40;;
974;SDS011;6115;49.296;10.602;2023-02-28T20:08:13;16.33;;;10.40;;
974;SDS011;6115;49.296;10.602;2023-02-28T20:13:14;14.17;;;9.67;;
974;SDS011;6115;49.296;10.602;2023-02-28T20:18:14;22.67;;;11.47;;
974;SDS011;6115;49.296;10.602;2023-02-28T20:23:15;17.10;;;9.73;;
974;SDS011;6115;49.296;10.602;2023-02-28T20:28:16;19.10;;;9.10;;
974;SDS011;6115;49.296;10.602;2023-02-28T20:33:18;12.80;;;8.47;;
974;SDS011;6115;49.296;10.602;2023-02-28T20:38:19;18.90;;;8.50;;
974;SDS011;6115;49.296;10.602;2023-02-28T20:43:19;15.40;;;8.70;;
974;SDS011;6115;49.296;10.602;2023-02-28T20:48:21;15.60;;;8.60;;
974;SDS011;6115;49.296;10.602;2023-02-28T20:53:22;13.87;;;8.17;;
974;SDS011;6115;49.296;10.602;2023-02-28T20:58:24;20.10;;;9.77;;
974;SDS011;6115;49.296;10.602;2023-02-28T21:03:26;14.13;;;8.23;;
974;SDS011;6115;49.296;10.602;2023-02-28T21:08:26;15.50;;;9.53;;
974;SDS011;6115;49.296;10.602;2023-02-28T21:13:27;13.20;;;8.80;;
974;SDS011;6115;49.296;10.602;2023-02-28T21:18:27;16.90;;;9.57;;
974;SDS011;6115;49.296;10.602;2023-02-28T21:23:28;14.30;;;9.53;;
974;SDS011;6115;49.296;10.602;2023-02-28T21:28:29;15.60;;;9.37;;
974;SDS011;6115;49.296;10.602;2023-02-28T21:33:30;18.10;;;10.70;;
974;SDS011;6115;49.296;10.602;2023-02-28T21:38:31;21.20;;;9.83;;
974;SDS011;6115;49.296;10.602;2023-02-28T21:43:32;18.90;;;10.17;;
974;SDS011;6115;49.296;10.602;2023-02-28T21:48:34;15.73;;;8.60;;
974;SDS011;6115;49.296;10.602;2023-02-28T21:53:35;18.80;;;11.20;;
974;SDS011;6115;49.296;10.602;2023-02-28T21:58:37;20.93;;;9.83;;
974;SDS011;6115;49.296;10.602;2023-02-28T22:03:38;15.57;;;10.17;;
974;SDS011;6115;49.296;10.602;2023-02-28T22:08:39;14.57;;;8.87;;
974;SDS011;6115;49.296;10.602;2023-02-28T22:13:40;18.20;;;9.90;;
974;SDS011;6115;49.296;10.602;2023-02-28T22:18:41;19.93;;;10.17;;
974;SDS011;6115;49.296;10.602;2023-02-28T22:23:42;16.97;;;9.93;;
974;SDS011;6115;49.296;10.602;2023-02-28T22:28:43;14.33;;;8.50;;
974;SDS011;6115;49.296;10.602;2023-02-28T22:33:44;18.73;;;9.70;;
974;SDS011;6115;49.296;10.602;2023-02-28T22:38:46;27.27;;;8.70;;
974;SDS011;6115;49.296;10.602;2023-02-28T22:43:53;14.53;;;8.00;;
974;SDS011;6115;49.296;10.602;2023-02-28T22:48:59;16.20;;;9.13;;
974;SDS011;6115;49.296;10.602;2023-02-28T22:54:01;23.33;;;10.00;;
974;SDS011;6115;49.296;10.602;2023-02-28T22:59:03;19.47;;;9.73;;
974;SDS011;6115;49.296;10.602;2023-02-28T23:04:03;17.73;;;8.87;;
974;SDS011;6115;49.296;10.602;2023-02-28T23:09:06;19.17;;;9.10;;
974;SDS011;6115;49.296;10.602;2023-02-28T23:14:09;18.13;;;9.00;;
974;SDS011;6115;49.296;10.602;2023-02-28T23:19:16;17.20;;;9.93;;
974;SDS011;6115;49.296;10.602;2023-02-28T23:24:20;17.10;;;9.27;;
974;SDS011;6115;49.296;10.602;2023-02-28T23:29:23;18.40;;;9.00;;
974;SDS011;6115;49.296;10.602;2023-02-28T23:34:26;22.20;;;9.53;;
974;SDS011;6115;49.296;10.602;2023-02-28T23:39:30;14.63;;;9.57;;
974;SDS011;6115;49.296;10.602;2023-02-28T23:44:31;14.20;;;9.70;;
974;SDS011;6115;49.296;10.602;2023-02-28T23:49:32;20.90;;;9.90;;
974;SDS011;6115;49.296;10.602;2023-02-28T23:54:32;19.83;;;10.43;;
974;SDS011;6115;49.296;10.602;2023-02-28T23:59:33;15.77;;;9.77;;
